sensor_id;sensor_type;location;lat;lon;timestamp;P1;durP1;ratioP1;P2;durP2;ratioP2
75787;SDS011;64406;50.024;14.492;2023-11-21T00:00:25;3.30;;;2.00;;
75787;SDS011;64406;50.024;14.492;2023-11-21T00:03:11;6.22;;;1.85;;
75787;SDS011;64406;50.024;14.492;2023-11-21T00:05:40;4.90;;;1.77;;
75787;SDS011;64406;50.024;14.492;2023-11-21T00:08:07;2.58;;;1.70;;
75787;SDS011;64406;50.024;14.492;2023-11-21T00:10:33;5.07;;;1.98;;
75787;SDS011;64406;50.024;14.492;2023-11-21T00:13:00;4.32;;;2.10;;
75787;SDS011;64406;50.024;14.492;2023-11-21T00:15:27;6.20;;;2.55;;
75787;SDS011;64406;50.024;14.492;2023-11-21T00:17:52;4.20;;;2.00;;
75787;SDS011;64406;50.024;14.492;2023-11-21T00:20:18;6.38;;;2.22;;
75787;SDS011;64406;50.024;14.492;2023-11-21T00:22:44;7.63;;;2.00;;
75787;SDS011;64406;50.024;14.492;2023-11-21T00:25:10;6.78;;;1.92;;
75787;SDS011;64406;50.024;14.492;2023-11-21T00:27:36;3.00;;;1.40;;
75787;SDS011;64406;50.024;14.492;2023-11-21T00:30:02;3.88;;;1.85;;
75787;SDS011;64406;50.024;14.492;2023-11-21T00:32:30;2.65;;;1.77;;
75787;SDS011;64406;50.024;14.492;2023-11-21T00:34:56;5.45;;;1.90;;
75787;SDS011;64406;50.024;14.492;2023-11-21T00:37:21;2.92;;;1.70;;
75787;SDS011;64406;50.024;14.492;2023-11-21T00:39:48;4.82;;;2.45;;
75787;SDS011;64406;50.024;14.492;2023-11-21T00:42:13;5.53;;;2.10;;
75787;SDS011;64406;50.024;14.492;2023-11-21T00:44:39;4.20;;;2.05;;
75787;SDS011;64406;50.024;14.492;2023-11-21T00:47:05;4.55;;;1.95;;
75787;SDS011;64406;50.024;14.492;2023-11-21T00:49:30;3.03;;;2.03;;
75787;SDS011;64406;50.024;14.492;2023-11-21T00:51:56;2.90;;;1.83;;
75787;SDS011;64406;50.024;14.492;2023-11-21T00:54:23;3.15;;;1.92;;
75787;SDS011;64406;50.024;14.492;2023-11-21T00:56:49;2.58;;;1.60;;
75787;SDS011;64406;50.024;14.492;2023-11-21T00:59:14;5.22;;;2.05;;
75787;SDS011;64406;50.024;14.492;2023-11-21T01:01:40;2.15;;;1.77;;
75787;SDS011;64406;50.024;14.492;2023-11-21T01:04:06;5.35;;;1.73;;
75787;SDS011;64406;50.024;14.492;2023-11-21T01:06:32;3.78;;;1.58;;
75787;SDS011;64406;50.024;14.492;2023-11-21T01:08:58;3.45;;;2.30;;
75787;SDS011;64406;50.024;14.492;2023-11-21T01:11:24;5.10;;;1.77;;
75787;SDS011;64406;50.024;14.492;2023-11-21T01:13:49;4.20;;;2.17;;
75787;SDS011;64406;50.024;14.492;2023-11-21T01:16:15;4.22;;;1.77;;
75787;SDS011;64406;50.024;14.492;2023-11-21T01:18:40;3.42;;;1.50;;
75787;SDS011;64406;50.024;14.492;2023-11-21T01:21:06;3.50;;;1.73;;
75787;SDS011;64406;50.024;14.492;2023-11-21T01:23:32;4.63;;;2.05;;
75787;SDS011;64406;50.024;14.492;2023-11-21T01:25:58;2.15;;;1.65;;
75787;SDS011;64406;50.024;14.492;2023-11-21T01:28:24;4.18;;;2.25;;
75787;SDS011;64406;50.024;14.492;2023-11-21T01:30:49;1.40;;;1.17;;
75787;SDS011;64406;50.024;14.492;2023-11-21T01:33:15;2.47;;;1.55;;
75787;SDS011;64406;50.024;14.492;2023-11-21T01:35:41;3.67;;;2.20;;
75787;SDS011;64406;50.024;14.492;2023-11-21T01:38:07;3.03;;;1.50;;
75787;SDS011;64406;50.024;14.492;2023-11-21T01:40:34;4.85;;;1.60;;
75787;SDS011;64406;50.024;14.492;2023-11-21T01:43:00;5.60;;;1.38;;
75787;SDS011;64406;50.024;14.492;2023-11-21T01:45:28;3.28;;;1.73;;
75787;SDS011;64406;50.024;14.492;2023-11-21T01:47:56;2.35;;;1.40;;
75787;SDS011;64406;50.024;14.492;2023-11-21T01:50:23;4.07;;;1.60;;
75787;SDS011;64406;50.024;14.492;2023-11-21T01:52:49;4.38;;;1.80;;
75787;SDS011;64406;50.024;14.492;2023-11-21T01:55:17;3.47;;;1.60;;
75787;SDS011;64406;50.024;14.492;2023-11-21T01:57:46;3.78;;;1.48;;
75787;SDS011;64406;50.024;14.492;2023-11-21T02:00:12;4.25;;;1.40;;
75787;SDS011;64406;50.024;14.492;2023-11-21T02:02:45;3.10;;;1.60;;
75787;SDS011;64406;50.024;14.492;2023-11-21T02:05:12;2.10;;;1.60;;
75787;SDS011;64406;50.024;14.492;2023-11-21T02:07:39;1.90;;;1.58;;
75787;SDS011;64406;50.024;14.492;2023-11-21T02:10:06;3.28;;;1.67;;
75787;SDS011;64406;50.024;14.492;2023-11-21T02:12:33;4.78;;;1.67;;
75787;SDS011;64406;50.024;14.492;2023-11-21T02:15:01;3.65;;;1.50;;
75787;SDS011;64406;50.024;14.492;2023-11-21T02:17:30;3.95;;;1.35;;
75787;SDS011;64406;50.024;14.492;2023-11-21T02:19:58;3.95;;;1.75;;
75787;SDS011;64406;50.024;14.492;2023-11-21T02:22:25;6.90;;;1.42;;
75787;SDS011;64406;50.024;14.492;2023-11-21T02:24:56;3.28;;;1.30;;
75787;SDS011;64406;50.024;14.492;2023-11-21T02:27:23;2.92;;;1.80;;
75787;SDS011;64406;50.024;14.492;2023-11-21T02:29:49;2.15;;;1.33;;
75787;SDS011;64406;50.024;14.492;2023-11-21T02:32:15;3.88;;;1.65;;
75787;SDS011;64406;50.024;14.492;2023-11-21T02:34:44;3.03;;;1.60;;
75787;SDS011;64406;50.024;14.492;2023-11-21T02:37:10;3.03;;;1.65;;
75787;SDS011;64406;50.024;14.492;2023-11-21T02:39:36;2.40;;;1.70;;
75787;SDS011;64406;50.024;14.492;2023-11-21T02:42:01;3.75;;;1.85;;
75787;SDS011;64406;50.024;14.492;2023-11-21T02:44:27;5.82;;;1.75;;
75787;SDS011;64406;50.024;14.492;2023-11-21T02:46:52;2.53;;;1.85;;
75787;SDS011;64406;50.024;14.492;2023-11-21T02:49:18;3.42;;;1.65;;
75787;SDS011;64406;50.024;14.492;2023-11-21T02:51:43;5.03;;;1.48;;
75787;SDS011;64406;50.024;14.492;2023-11-21T02:54:09;3.22;;;1.48;;
75787;SDS011;64406;50.024;14.492;2023-11-21T02:56:35;2.38;;;1.40;;
75787;SDS011;64406;50.024;14.492;2023-11-21T02:59:01;2.50;;;1.52;;
75787;SDS011;64406;50.024;14.492;2023-11-21T03:01:26;4.75;;;1.38;;
75787;SDS011;64406;50.024;14.492;2023-11-21T03:03:53;2.35;;;1.30;;
75787;SDS011;64406;50.024;14.492;2023-11-21T03:06:20;3.42;;;1.38;;
75787;SDS011;64406;50.024;14.492;2023-11-21T03:08:46;3.63;;;1.70;;
75787;SDS011;64406;50.024;14.492;2023-11-21T03:11:12;3.30;;;1.45;;
75787;SDS011;64406;50.024;14.492;2023-11-21T03:13:41;5.65;;;1.60;;
75787;SDS011;64406;50.024;14.492;2023-11-21T03:16:08;6.93;;;1.60;;
75787;SDS011;64406;50.024;14.492;2023-11-21T03:18:34;4.45;;;1.75;;
75787;SDS011;64406;50.024;14.492;2023-11-21T03:20:59;7.63;;;1.50;;
75787;SDS011;64406;50.024;14.492;2023-11-21T03:23:25;5.07;;;1.85;;
75787;SDS011;64406;50.024;14.492;2023-11-21T03:25:51;3.10;;;1.30;;
75787;SDS011;64406;50.024;14.492;2023-11-21T03:28:16;4.57;;;2.22;;
75787;SDS011;64406;50.024;14.492;2023-11-21T03:30:42;8.00;;;1.88;;
75787;SDS011;64406;50.024;14.492;2023-11-21T03:33:08;5.50;;;1.90;;
75787;SDS011;64406;50.024;14.492;2023-11-21T03:35:33;2.67;;;1.73;;
75787;SDS011;64406;50.024;14.492;2023-11-21T03:37:59;5.40;;;1.60;;
75787;SDS011;64406;50.024;14.492;2023-11-21T03:40:24;7.10;;;1.77;;
75787;SDS011;64406;50.024;14.492;2023-11-21T03:42:50;3.00;;;1.60;;
75787;SDS011;64406;50.024;14.492;2023-11-21T03:45:15;3.75;;;1.52;;
75787;SDS011;64406;50.024;14.492;2023-11-21T03:47:41;1.75;;;1.17;;
75787;SDS011;64406;50.024;14.492;2023-11-21T03:50:07;5.22;;;1.85;;
75787;SDS011;64406;50.024;14.492;2023-11-21T03:52:36;3.92;;;1.55;;
75787;SDS011;64406;50.024;14.492;2023-11-21T03:55:02;3.70;;;1.92;;
75787;SDS011;64406;50.024;14.492;2023-11-21T03:57:28;3.75;;;1.45;;
75787;SDS011;64406;50.024;14.492;2023-11-21T03:59:53;2.25;;;1.65;;
75787;SDS011;64406;50.024;14.492;2023-11-21T04:02:19;5.03;;;1.80;;
75787;SDS011;64406;50.024;14.492;2023-11-21T04:04:45;2.30;;;1.65;;
75787;SDS011;64406;50.024;14.492;2023-11-21T04:07:11;3.03;;;1.65;;
75787;SDS011;64406;50.024;14.492;2023-11-21T04:09:38;4.68;;;1.75;;
75787;SDS011;64406;50.024;14.492;2023-11-21T04:12:05;2.83;;;1.40;;
75787;SDS011;64406;50.024;14.492;2023-11-21T04:14:30;3.88;;;1.65;;
75787;SDS011;64406;50.024;14.492;2023-11-21T04:16:57;3.38;;;1.58;;
75787;SDS011;64406;50.024;14.492;2023-11-21T04:19:22;3.50;;;1.33;;
75787;SDS011;64406;50.024;14.492;2023-11-21T04:21:48;3.45;;;1.45;;
75787;SDS011;64406;50.024;14.492;2023-11-21T04:24:14;1.58;;;1.10;;
75787;SDS011;64406;50.024;14.492;2023-11-21T04:26:39;4.03;;;1.42;;
75787;SDS011;64406;50.024;14.492;2023-11-21T04:29:05;4.55;;;1.70;;
75787;SDS011;64406;50.024;14.492;2023-11-21T04:31:31;3.55;;;1.77;;
75787;SDS011;64406;50.024;14.492;2023-11-21T04:33:57;2.50;;;1.70;;
75787;SDS011;64406;50.024;14.492;2023-11-21T04:36:23;3.58;;;1.42;;
75787;SDS011;64406;50.024;14.492;2023-11-21T04:38:48;3.13;;;1.58;;
75787;SDS011;64406;50.024;14.492;2023-11-21T04:41:14;3.92;;;1.60;;
75787;SDS011;64406;50.024;14.492;2023-11-21T04:43:39;4.88;;;1.52;;
75787;SDS011;64406;50.024;14.492;2023-11-21T04:46:05;2.75;;;1.50;;
75787;SDS011;64406;50.024;14.492;2023-11-21T04:48:32;2.45;;;1.83;;
75787;SDS011;64406;50.024;14.492;2023-11-21T04:50:58;3.22;;;1.77;;
75787;SDS011;64406;50.024;14.492;2023-11-21T04:53:23;5.95;;;1.77;;
75787;SDS011;64406;50.024;14.492;2023-11-21T04:55:49;3.10;;;1.27;;
75787;SDS011;64406;50.024;14.492;2023-11-21T04:58:14;3.50;;;1.63;;
75787;SDS011;64406;50.024;14.492;2023-11-21T05:00:40;2.67;;;1.40;;
75787;SDS011;64406;50.024;14.492;2023-11-21T05:03:06;3.83;;;1.55;;
75787;SDS011;64406;50.024;14.492;2023-11-21T05:05:33;3.80;;;1.70;;
75787;SDS011;64406;50.024;14.492;2023-11-21T05:08:01;5.25;;;1.83;;
75787;SDS011;64406;50.024;14.492;2023-11-21T05:10:27;4.70;;;1.70;;
75787;SDS011;64406;50.024;14.492;2023-11-21T05:12:52;3.83;;;1.58;;
75787;SDS011;64406;50.024;14.492;2023-11-21T05:15:18;5.43;;;1.77;;
75787;SDS011;64406;50.024;14.492;2023-11-21T05:17:44;3.45;;;1.42;;
75787;SDS011;64406;50.024;14.492;2023-11-21T05:20:13;4.40;;;1.77;;
75787;SDS011;64406;50.024;14.492;2023-11-21T05:22:43;2.17;;;1.45;;
75787;SDS011;64406;50.024;14.492;2023-11-21T05:25:09;2.55;;;1.80;;
75787;SDS011;64406;50.024;14.492;2023-11-21T05:27:35;1.33;;;1.23;;
75787;SDS011;64406;50.024;14.492;2023-11-21T05:30:01;4.93;;;2.17;;
75787;SDS011;64406;50.024;14.492;2023-11-21T05:32:30;2.70;;;1.17;;
75787;SDS011;64406;50.024;14.492;2023-11-21T05:34:56;3.70;;;1.73;;
75787;SDS011;64406;50.024;14.492;2023-11-21T05:37:22;5.40;;;1.98;;
75787;SDS011;64406;50.024;14.492;2023-11-21T05:39:48;2.38;;;1.77;;
75787;SDS011;64406;50.024;14.492;2023-11-21T05:42:14;4.35;;;1.73;;
75787;SDS011;64406;50.024;14.492;2023-11-21T05:44:41;3.17;;;1.80;;
75787;SDS011;64406;50.024;14.492;2023-11-21T05:47:08;6.57;;;2.20;;
75787;SDS011;64406;50.024;14.492;2023-11-21T05:49:34;3.55;;;1.35;;
75787;SDS011;64406;50.024;14.492;2023-11-21T05:52:00;1.85;;;1.40;;
75787;SDS011;64406;50.024;14.492;2023-11-21T05:54:26;4.10;;;1.80;;
75787;SDS011;64406;50.024;14.492;2023-11-21T05:56:51;3.25;;;1.80;;
75787;SDS011;64406;50.024;14.492;2023-11-21T05:59:17;6.97;;;2.42;;
75787;SDS011;64406;50.024;14.492;2023-11-21T06:01:42;2.78;;;1.73;;
75787;SDS011;64406;50.024;14.492;2023-11-21T06:04:08;3.00;;;1.85;;
75787;SDS011;64406;50.024;14.492;2023-11-21T06:06:34;3.30;;;1.80;;
75787;SDS011;64406;50.024;14.492;2023-11-21T06:09:01;7.30;;;2.15;;
75787;SDS011;64406;50.024;14.492;2023-11-21T06:11:26;4.07;;;1.60;;
75787;SDS011;64406;50.024;14.492;2023-11-21T06:13:52;2.10;;;1.65;;
75787;SDS011;64406;50.024;14.492;2023-11-21T06:16:18;2.10;;;1.48;;
75787;SDS011;64406;50.024;14.492;2023-11-21T06:18:45;5.88;;;1.88;;
75787;SDS011;64406;50.024;14.492;2023-11-21T06:21:11;3.53;;;1.85;;
75787;SDS011;64406;50.024;14.492;2023-11-21T06:23:37;5.78;;;1.40;;
75787;SDS011;64406;50.024;14.492;2023-11-21T06:26:03;3.95;;;1.90;;
75787;SDS011;64406;50.024;14.492;2023-11-21T06:28:30;6.18;;;1.88;;
75787;SDS011;64406;50.024;14.492;2023-11-21T06:30:56;4.03;;;2.08;;
75787;SDS011;64406;50.024;14.492;2023-11-21T06:33:23;2.70;;;1.67;;
75787;SDS011;64406;50.024;14.492;2023-11-21T06:35:52;2.63;;;1.40;;
75787;SDS011;64406;50.024;14.492;2023-11-21T06:38:18;5.22;;;1.65;;
75787;SDS011;64406;50.024;14.492;2023-11-21T06:40:45;3.88;;;1.60;;
75787;SDS011;64406;50.024;14.492;2023-11-21T06:43:11;3.42;;;1.45;;
75787;SDS011;64406;50.024;14.492;2023-11-21T06:45:36;4.45;;;2.10;;
75787;SDS011;64406;50.024;14.492;2023-11-21T06:48:02;3.67;;;1.77;;
75787;SDS011;64406;50.024;14.492;2023-11-21T06:50:27;5.68;;;1.95;;
75787;SDS011;64406;50.024;14.492;2023-11-21T06:52:53;3.75;;;1.73;;
75787;SDS011;64406;50.024;14.492;2023-11-21T06:55:19;4.07;;;2.33;;
75787;SDS011;64406;50.024;14.492;2023-11-21T06:57:45;2.17;;;1.95;;
75787;SDS011;64406;50.024;14.492;2023-11-21T07:00:12;4.18;;;1.85;;
75787;SDS011;64406;50.024;14.492;2023-11-21T07:02:40;2.17;;;1.50;;
75787;SDS011;64406;50.024;14.492;2023-11-21T07:05:06;3.25;;;2.10;;
75787;SDS011;64406;50.024;14.492;2023-11-21T07:07:32;3.53;;;2.25;;
75787;SDS011;64406;50.024;14.492;2023-11-21T07:10:00;4.78;;;2.05;;
75787;SDS011;64406;50.024;14.492;2023-11-21T07:12:29;6.22;;;2.00;;
75787;SDS011;64406;50.024;14.492;2023-11-21T07:14:56;3.40;;;2.03;;
75787;SDS011;64406;50.024;14.492;2023-11-21T07:17:22;1.90;;;1.55;;
75787;SDS011;64406;50.024;14.492;2023-11-21T07:19:48;3.58;;;2.38;;
75787;SDS011;64406;50.024;14.492;2023-11-21T07:22:15;7.10;;;2.03;;
75787;SDS011;64406;50.024;14.492;2023-11-21T07:24:48;4.07;;;2.50;;
75787;SDS011;64406;50.024;14.492;2023-11-21T07:27:15;2.92;;;1.80;;
75787;SDS011;64406;50.024;14.492;2023-11-21T07:29:40;5.53;;;2.65;;
75787;SDS011;64406;50.024;14.492;2023-11-21T07:32:06;4.05;;;1.77;;
75787;SDS011;64406;50.024;14.492;2023-11-21T07:34:34;3.35;;;1.92;;
75787;SDS011;64406;50.024;14.492;2023-11-21T07:37:00;2.83;;;2.10;;
75787;SDS011;64406;50.024;14.492;2023-11-21T07:39:25;6.57;;;2.83;;
75787;SDS011;64406;50.024;14.492;2023-11-21T07:41:51;8.20;;;2.38;;
75787;SDS011;64406;50.024;14.492;2023-11-21T07:44:17;3.47;;;2.28;;
75787;SDS011;64406;50.024;14.492;2023-11-21T07:46:43;3.88;;;2.38;;
75787;SDS011;64406;50.024;14.492;2023-11-21T07:49:09;6.32;;;2.65;;
75787;SDS011;64406;50.024;14.492;2023-11-21T07:51:35;4.30;;;2.40;;
75787;SDS011;64406;50.024;14.492;2023-11-21T07:54:00;5.10;;;2.53;;
75787;SDS011;64406;50.024;14.492;2023-11-21T07:56:26;3.65;;;2.38;;
75787;SDS011;64406;50.024;14.492;2023-11-21T07:58:52;2.88;;;2.22;;
75787;SDS011;64406;50.024;14.492;2023-11-21T08:01:18;4.63;;;2.65;;
75787;SDS011;64406;50.024;14.492;2023-11-21T08:03:43;4.20;;;2.47;;
75787;SDS011;64406;50.024;14.492;2023-11-21T08:06:09;5.10;;;2.45;;
75787;SDS011;64406;50.024;14.492;2023-11-21T08:08:35;3.45;;;2.28;;
75787;SDS011;64406;50.024;14.492;2023-11-21T08:11:01;5.80;;;3.10;;
75787;SDS011;64406;50.024;14.492;2023-11-21T08:13:29;4.35;;;2.45;;
75787;SDS011;64406;50.024;14.492;2023-11-21T08:15:56;4.03;;;2.45;;
75787;SDS011;64406;50.024;14.492;2023-11-21T08:18:26;5.50;;;2.20;;
75787;SDS011;64406;50.024;14.492;2023-11-21T08:20:53;2.50;;;2.30;;
75787;SDS011;64406;50.024;14.492;2023-11-21T08:23:20;4.50;;;2.80;;
75787;SDS011;64406;50.024;14.492;2023-11-21T08:25:50;6.45;;;3.25;;
75787;SDS011;64406;50.024;14.492;2023-11-21T08:28:16;3.63;;;2.45;;
75787;SDS011;64406;50.024;14.492;2023-11-21T08:30:43;6.45;;;2.50;;
75787;SDS011;64406;50.024;14.492;2023-11-21T08:33:10;4.25;;;2.38;;
75787;SDS011;64406;50.024;14.492;2023-11-21T08:35:39;4.88;;;2.40;;
75787;SDS011;64406;50.024;14.492;2023-11-21T08:38:04;4.50;;;1.83;;
75787;SDS011;64406;50.024;14.492;2023-11-21T08:40:30;4.43;;;1.65;;
75787;SDS011;64406;50.024;14.492;2023-11-21T08:42:56;2.63;;;1.95;;
75787;SDS011;64406;50.024;14.492;2023-11-21T08:45:24;4.70;;;2.15;;
75787;SDS011;64406;50.024;14.492;2023-11-21T08:47:53;2.63;;;2.15;;
75787;SDS011;64406;50.024;14.492;2023-11-21T08:50:18;2.85;;;2.03;;
75787;SDS011;64406;50.024;14.492;2023-11-21T08:52:44;3.08;;;2.03;;
75787;SDS011;64406;50.024;14.492;2023-11-21T08:55:15;2.88;;;1.77;;
75787;SDS011;64406;50.024;14.492;2023-11-21T08:57:41;3.72;;;2.08;;
75787;SDS011;64406;50.024;14.492;2023-11-21T09:00:09;3.47;;;2.08;;
75787;SDS011;64406;50.024;14.492;2023-11-21T09:02:42;3.97;;;1.88;;
75787;SDS011;64406;50.024;14.492;2023-11-21T09:05:12;4.03;;;1.98;;
75787;SDS011;64406;50.024;14.492;2023-11-21T09:07:39;3.85;;;1.90;;
75787;SDS011;64406;50.024;14.492;2023-11-21T09:10:07;2.17;;;1.75;;
75787;SDS011;64406;50.024;14.492;2023-11-21T09:12:34;3.75;;;1.70;;
75787;SDS011;64406;50.024;14.492;2023-11-21T09:15:02;6.38;;;1.92;;
75787;SDS011;64406;50.024;14.492;2023-11-21T09:17:29;3.20;;;2.03;;
75787;SDS011;64406;50.024;14.492;2023-11-21T09:19:55;4.78;;;2.10;;
75787;SDS011;64406;50.024;14.492;2023-11-21T09:22:22;2.67;;;1.95;;
75787;SDS011;64406;50.024;14.492;2023-11-21T09:24:50;3.10;;;2.08;;
75787;SDS011;64406;50.024;14.492;2023-11-21T09:27:17;3.70;;;1.75;;
75787;SDS011;64406;50.024;14.492;2023-11-21T09:29:43;4.55;;;2.25;;
75787;SDS011;64406;50.024;14.492;2023-11-21T09:32:08;5.22;;;2.38;;
75787;SDS011;64406;50.024;14.492;2023-11-21T09:34:39;2.75;;;2.05;;
75787;SDS011;64406;50.024;14.492;2023-11-21T09:37:05;1.90;;;1.58;;
75787;SDS011;64406;50.024;14.492;2023-11-21T09:39:34;3.67;;;2.03;;
75787;SDS011;64406;50.024;14.492;2023-11-21T09:42:13;3.17;;;1.85;;
75787;SDS011;64406;50.024;14.492;2023-11-21T09:45:03;3.63;;;2.20;;
75787;SDS011;64406;50.024;14.492;2023-11-21T09:47:35;5.65;;;2.97;;
75787;SDS011;64406;50.024;14.492;2023-11-21T09:50:05;3.20;;;2.22;;
75787;SDS011;64406;50.024;14.492;2023-11-21T09:52:41;6.45;;;1.85;;
75787;SDS011;64406;50.024;14.492;2023-11-21T09:55:30;5.15;;;1.95;;
75787;SDS011;64406;50.024;14.492;2023-11-21T09:58:01;4.13;;;1.85;;
75787;SDS011;64406;50.024;14.492;2023-11-21T10:00:28;4.60;;;2.22;;
75787;SDS011;64406;50.024;14.492;2023-11-21T10:02:57;4.28;;;2.20;;
75787;SDS011;64406;50.024;14.492;2023-11-21T10:05:24;4.43;;;2.30;;
75787;SDS011;64406;50.024;14.492;2023-11-21T10:07:50;2.58;;;1.60;;
75787;SDS011;64406;50.024;14.492;2023-11-21T10:10:20;4.53;;;2.38;;
75787;SDS011;64406;50.024;14.492;2023-11-21T10:12:50;3.22;;;1.90;;
75787;SDS011;64406;50.024;14.492;2023-11-21T10:15:22;3.17;;;2.10;;
75787;SDS011;64406;50.024;14.492;2023-11-21T10:17:50;2.97;;;2.20;;
75787;SDS011;64406;50.024;14.492;2023-11-21T10:20:19;4.10;;;2.17;;
75787;SDS011;64406;50.024;14.492;2023-11-21T10:22:45;3.75;;;2.13;;
75787;SDS011;64406;50.024;14.492;2023-11-21T10:25:12;4.72;;;2.22;;
75787;SDS011;64406;50.024;14.492;2023-11-21T10:27:42;3.08;;;2.33;;
75787;SDS011;64406;50.024;14.492;2023-11-21T10:30:09;4.40;;;2.22;;
75787;SDS011;64406;50.024;14.492;2023-11-21T10:32:41;5.05;;;2.15;;
75787;SDS011;64406;50.024;14.492;2023-11-21T10:35:11;7.70;;;2.38;;
75787;SDS011;64406;50.024;14.492;2023-11-21T10:37:37;5.70;;;2.60;;
75787;SDS011;64406;50.024;14.492;2023-11-21T10:40:06;5.60;;;2.33;;
75787;SDS011;64406;50.024;14.492;2023-11-21T10:42:33;8.85;;;2.97;;
75787;SDS011;64406;50.024;14.492;2023-11-21T10:44:59;5.13;;;1.92;;
75787;SDS011;64406;50.024;14.492;2023-11-21T10:47:25;3.20;;;2.17;;
75787;SDS011;64406;50.024;14.492;2023-11-21T10:49:52;2.75;;;2.10;;
75787;SDS011;64406;50.024;14.492;2023-11-21T10:52:20;7.70;;;2.67;;
75787;SDS011;64406;50.024;14.492;2023-11-21T10:54:46;4.63;;;2.50;;
75787;SDS011;64406;50.024;14.492;2023-11-21T10:57:13;4.40;;;2.42;;
75787;SDS011;64406;50.024;14.492;2023-11-21T10:59:45;4.82;;;2.40;;
75787;SDS011;64406;50.024;14.492;2023-11-21T11:02:26;6.60;;;3.20;;
75787;SDS011;64406;50.024;14.492;2023-11-21T11:04:53;4.78;;;2.33;;
75787;SDS011;64406;50.024;14.492;2023-11-21T11:07:26;3.75;;;2.22;;
75787;SDS011;64406;50.024;14.492;2023-11-21T11:09:53;3.30;;;2.00;;
75787;SDS011;64406;50.024;14.492;2023-11-21T11:12:20;4.45;;;2.00;;
75787;SDS011;64406;50.024;14.492;2023-11-21T11:14:46;3.70;;;2.13;;
75787;SDS011;64406;50.024;14.492;2023-11-21T11:17:13;3.67;;;2.05;;
75787;SDS011;64406;50.024;14.492;2023-11-21T11:19:39;2.17;;;1.83;;
75787;SDS011;64406;50.024;14.492;2023-11-21T11:22:12;5.00;;;2.22;;
75787;SDS011;64406;50.024;14.492;2023-11-21T11:33:37;1.83;;;1.38;;
75787;SDS011;64406;50.024;14.492;2023-11-21T11:36:10;3.92;;;2.20;;
75787;SDS011;64406;50.024;14.492;2023-11-21T11:38:45;3.25;;;1.58;;
75787;SDS011;64406;50.024;14.492;2023-11-21T11:41:11;2.50;;;1.77;;
75787;SDS011;64406;50.024;14.492;2023-11-21T11:43:38;5.10;;;1.70;;
75787;SDS011;64406;50.024;14.492;2023-11-21T11:46:10;4.07;;;1.73;;
75787;SDS011;64406;50.024;14.492;2023-11-21T11:48:39;3.25;;;1.65;;
75787;SDS011;64406;50.024;14.492;2023-11-21T11:51:06;2.83;;;1.70;;
75787;SDS011;64406;50.024;14.492;2023-11-21T11:53:43;3.90;;;2.38;;
75787;SDS011;64406;50.024;14.492;2023-11-21T11:58:55;5.18;;;2.30;;
75787;SDS011;64406;50.024;14.492;2023-11-21T12:01:26;4.68;;;1.80;;
75787;SDS011;64406;50.024;14.492;2023-11-21T12:06:42;7.72;;;1.83;;
75787;SDS011;64406;50.024;14.492;2023-11-21T12:09:17;11.10;;;2.67;;
75787;SDS011;64406;50.024;14.492;2023-11-21T12:11:44;5.18;;;1.50;;
75787;SDS011;64406;50.024;14.492;2023-11-21T12:14:13;6.25;;;2.05;;
75787;SDS011;64406;50.024;14.492;2023-11-21T12:16:42;5.10;;;2.22;;
75787;SDS011;64406;50.024;14.492;2023-11-21T12:19:11;6.53;;;2.20;;
75787;SDS011;64406;50.024;14.492;2023-11-21T12:21:38;5.03;;;2.45;;
75787;SDS011;64406;50.024;14.492;2023-11-21T12:24:06;3.83;;;2.30;;
75787;SDS011;64406;50.024;14.492;2023-11-21T12:26:34;5.93;;;2.33;;
75787;SDS011;64406;50.024;14.492;2023-11-21T12:29:03;3.80;;;2.10;;
75787;SDS011;64406;50.024;14.492;2023-11-21T12:31:30;4.65;;;1.88;;
75787;SDS011;64406;50.024;14.492;2023-11-21T12:33:56;3.05;;;2.40;;
75787;SDS011;64406;50.024;14.492;2023-11-21T12:36:22;4.90;;;2.17;;
75787;SDS011;64406;50.024;14.492;2023-11-21T12:38:49;6.68;;;1.90;;
75787;SDS011;64406;50.024;14.492;2023-11-21T12:41:15;5.70;;;2.03;;
75787;SDS011;64406;50.024;14.492;2023-11-21T12:43:42;3.65;;;1.73;;
75787;SDS011;64406;50.024;14.492;2023-11-21T12:46:10;8.10;;;2.42;;
75787;SDS011;64406;50.024;14.492;2023-11-21T12:48:39;3.55;;;2.05;;
75787;SDS011;64406;50.024;14.492;2023-11-21T12:51:10;2.53;;;2.08;;
75787;SDS011;64406;50.024;14.492;2023-11-21T12:53:44;5.43;;;2.00;;
75787;SDS011;64406;50.024;14.492;2023-11-21T12:56:12;4.78;;;2.22;;
75787;SDS011;64406;50.024;14.492;2023-11-21T12:58:39;4.22;;;2.55;;
75787;SDS011;64406;50.024;14.492;2023-11-21T13:01:10;3.90;;;2.33;;
75787;SDS011;64406;50.024;14.492;2023-11-21T13:03:43;3.78;;;2.35;;
75787;SDS011;64406;50.024;14.492;2023-11-21T13:06:10;6.07;;;2.13;;
75787;SDS011;64406;50.024;14.492;2023-11-21T13:08:37;3.05;;;2.00;;
75787;SDS011;64406;50.024;14.492;2023-11-21T13:11:04;5.03;;;2.50;;
75787;SDS011;64406;50.024;14.492;2023-11-21T13:13:31;10.90;;;2.75;;
75787;SDS011;64406;50.024;14.492;2023-11-21T13:16:01;5.80;;;2.20;;
75787;SDS011;64406;50.024;14.492;2023-11-21T13:18:30;6.28;;;2.70;;
75787;SDS011;64406;50.024;14.492;2023-11-21T13:20:57;4.95;;;1.70;;
75787;SDS011;64406;50.024;14.492;2023-11-21T13:23:24;4.90;;;1.98;;
75787;SDS011;64406;50.024;14.492;2023-11-21T13:25:51;4.93;;;2.35;;
75787;SDS011;64406;50.024;14.492;2023-11-21T13:28:18;5.13;;;2.20;;
75787;SDS011;64406;50.024;14.492;2023-11-21T13:30:46;2.28;;;2.03;;
75787;SDS011;64406;50.024;14.492;2023-11-21T13:33:17;7.28;;;2.38;;
75787;SDS011;64406;50.024;14.492;2023-11-21T13:35:47;7.88;;;3.05;;
75787;SDS011;64406;50.024;14.492;2023-11-21T13:38:16;2.92;;;2.22;;
75787;SDS011;64406;50.024;14.492;2023-11-21T13:40:47;4.25;;;2.53;;
75787;SDS011;64406;50.024;14.492;2023-11-21T13:43:15;3.30;;;1.83;;
75787;SDS011;64406;50.024;14.492;2023-11-21T13:45:43;5.07;;;2.17;;
75787;SDS011;64406;50.024;14.492;2023-11-21T13:48:10;9.50;;;4.80;;
75787;SDS011;64406;50.024;14.492;2023-11-21T13:50:39;7.38;;;2.60;;
75787;SDS011;64406;50.024;14.492;2023-11-21T13:53:13;6.68;;;2.17;;
75787;SDS011;64406;50.024;14.492;2023-11-21T13:55:51;5.57;;;2.50;;
75787;SDS011;64406;50.024;14.492;2023-11-21T13:58:20;8.32;;;3.30;;
75787;SDS011;64406;50.024;14.492;2023-11-21T14:01:05;8.23;;;2.65;;
75787;SDS011;64406;50.024;14.492;2023-11-21T14:03:37;7.30;;;2.90;;
75787;SDS011;64406;50.024;14.492;2023-11-21T14:06:10;7.53;;;2.90;;
75787;SDS011;64406;50.024;14.492;2023-11-21T14:08:43;8.65;;;3.42;;
75787;SDS011;64406;50.024;14.492;2023-11-21T14:11:09;7.00;;;2.85;;
75787;SDS011;64406;50.024;14.492;2023-11-21T14:13:36;10.50;;;3.35;;
75787;SDS011;64406;50.024;14.492;2023-11-21T14:16:03;10.27;;;3.10;;
75787;SDS011;64406;50.024;14.492;2023-11-21T14:18:31;5.22;;;3.25;;
75787;SDS011;64406;50.024;14.492;2023-11-21T14:21:04;6.47;;;3.58;;
75787;SDS011;64406;50.024;14.492;2023-11-21T14:23:31;5.55;;;2.97;;
75787;SDS011;64406;50.024;14.492;2023-11-21T14:25:58;6.38;;;3.30;;
75787;SDS011;64406;50.024;14.492;2023-11-21T14:28:26;7.03;;;3.67;;
75787;SDS011;64406;50.024;14.492;2023-11-21T14:30:52;9.45;;;3.55;;
75787;SDS011;64406;50.024;14.492;2023-11-21T14:33:17;8.40;;;4.63;;
75787;SDS011;64406;50.024;14.492;2023-11-21T14:35:43;6.63;;;4.05;;
75787;SDS011;64406;50.024;14.492;2023-11-21T14:38:09;9.07;;;4.22;;
75787;SDS011;64406;50.024;14.492;2023-11-21T14:40:35;8.90;;;4.53;;
75787;SDS011;64406;50.024;14.492;2023-11-21T14:43:01;8.55;;;4.35;;
75787;SDS011;64406;50.024;14.492;2023-11-21T14:45:30;6.88;;;4.25;;
75787;SDS011;64406;50.024;14.492;2023-11-21T14:47:57;7.95;;;3.92;;